sensor_id;sensor_type;location;lat;lon;timestamp;temperature;humidity
24232;DHT22;12364;47.810;8.810;2023-02-28T04:48:30;2.60;85.20
24232;DHT22;12364;47.810;8.810;2023-02-28T04:51:01;2.60;85.50
24232;DHT22;12364;47.810;8.810;2023-02-28T04:53:28;2.60;85.50
24232;DHT22;12364;47.810;8.810;2023-02-28T04:55:56;2.60;85.30
24232;DHT22;12364;47.810;8.810;2023-02-28T04:58:23;2.70;85.40
24232;DHT22;12364;47.810;8.810;2023-02-28T05:00:51;2.70;85.00
24232;DHT22;12364;47.810;8.810;2023-02-28T05:03:18;2.70;85.00
24232;DHT22;12364;47.810;8.810;2023-02-28T05:05:45;2.80;85.30
24232;DHT22;12364;47.810;8.810;2023-02-28T05:08:12;2.90;84.80
24232;DHT22;12364;47.810;8.810;2023-02-28T05:10:39;2.80;84.70
24232;DHT22;12364;47.810;8.810;2023-02-28T05:13:08;2.80;84.60
24232;DHT22;12364;47.810;8.810;2023-02-28T05:15:36;2.80;85.00
24232;DHT22;12364;47.810;8.810;2023-02-28T05:18:03;2.80;85.00
24232;DHT22;12364;47.810;8.810;2023-02-28T05:20:30;2.90;84.60
24232;DHT22;12364;47.810;8.810;2023-02-28T05:22:57;2.90;84.40
24232;DHT22;12364;47.810;8.810;2023-02-28T05:25:24;2.90;84.60
24232;DHT22;12364;47.810;8.810;2023-02-28T05:27:51;2.90;84.50
24232;DHT22;12364;47.810;8.810;2023-02-28T05:30:18;2.90;84.60
24232;DHT22;12364;47.810;8.810;2023-02-28T05:32:49;2.90;84.10
24232;DHT22;12364;47.810;8.810;2023-02-28T05:35:16;2.80;84.70
24232;DHT22;12364;47.810;8.810;2023-02-28T05:37:43;2.80;84.40
24232;DHT22;12364;47.810;8.810;2023-02-28T05:40:10;2.90;84.60
24232;DHT22;12364;47.810;8.810;2023-02-28T05:42:37;2.90;84.40
24232;DHT22;12364;47.810;8.810;2023-02-28T05:45:04;2.90;84.40
24232;DHT22;12364;47.810;8.810;2023-02-28T05:47:32;2.90;84.60
24232;DHT22;12364;47.810;8.810;2023-02-28T05:49:58;2.90;84.20
24232;DHT22;12364;47.810;8.810;2023-02-28T05:52:27;2.90;84.30
24232;DHT22;12364;47.810;8.810;2023-02-28T05:54:54;2.90;84.60
24232;DHT22;12364;47.810;8.810;2023-02-28T05:57:21;3.10;84.60
24232;DHT22;12364;47.810;8.810;2023-02-28T05:59:50;2.90;84.30
24232;DHT22;12364;47.810;8.810;2023-02-28T06:02:17;2.90;84.20
24232;DHT22;12364;47.810;8.810;2023-02-28T06:04:44;2.90;84.20
24232;DHT22;12364;47.810;8.810;2023-02-28T06:07:11;2.90;84.20
24232;DHT22;12364;47.810;8.810;2023-02-28T06:09:38;2.90;84.40
24232;DHT22;12364;47.810;8.810;2023-02-28T06:12:06;2.90;84.30
24232;DHT22;12364;47.810;8.810;2023-02-28T06:14:34;2.90;84.30
24232;DHT22;12364;47.810;8.810;2023-02-28T06:17:01;3.00;84.60
24232;DHT22;12364;47.810;8.810;2023-02-28T06:19:28;2.90;84.20
24232;DHT22;12364;47.810;8.810;2023-02-28T06:21:56;2.90;84.30
24232;DHT22;12364;47.810;8.810;2023-02-28T06:24:24;3.00;84.40
24232;DHT22;12364;47.810;8.810;2023-02-28T06:26:51;2.90;83.90
24232;DHT22;12364;47.810;8.810;2023-02-28T06:29:18;2.80;84.40
24232;DHT22;12364;47.810;8.810;2023-02-28T06:31:45;2.80;84.40
24232;DHT22;12364;47.810;8.810;2023-02-28T06:34:13;2.80;84.70
24232;DHT22;12364;47.810;8.810;2023-02-28T06:36:41;2.70;84.60
24232;DHT22;12364;47.810;8.810;2023-02-28T06:39:08;2.70;84.90
24232;DHT22;12364;47.810;8.810;2023-02-28T06:41:35;2.80;85.00
24232;DHT22;12364;47.810;8.810;2023-02-28T06:44:20;2.80;84.80
24232;DHT22;12364;47.810;8.810;2023-02-28T06:46:47;2.90;84.80
24232;DHT22;12364;47.810;8.810;2023-02-28T06:49:14;2.90;84.70
24232;DHT22;12364;47.810;8.810;2023-02-28T06:51:42;3.00;84.70
24232;DHT22;12364;47.810;8.810;2023-02-28T06:54:12;3.00;84.60
24232;DHT22;12364;47.810;8.810;2023-02-28T06:56:39;3.00;84.30
24232;DHT22;12364;47.810;8.810;2023-02-28T06:59:06;2.90;84.40
24232;DHT22;12364;47.810;8.810;2023-02-28T07:01:33;2.90;84.50
24232;DHT22;12364;47.810;8.810;2023-02-28T07:04:00;2.80;84.60
24232;DHT22;12364;47.810;8.810;2023-02-28T07:06:27;2.80;84.70
24232;DHT22;12364;47.810;8.810;2023-02-28T07:08:54;2.80;84.70
24232;DHT22;12364;47.810;8.810;2023-02-28T07:11:23;2.80;84.80
24232;DHT22;12364;47.810;8.810;2023-02-28T07:13:52;2.80;84.70
24232;DHT22;12364;47.810;8.810;2023-02-28T07:16:20;2.80;84.90
24232;DHT22;12364;47.810;8.810;2023-02-28T07:18:47;2.80;85.10
24232;DHT22;12364;47.810;8.810;2023-02-28T07:21:14;2.80;84.50
24232;DHT22;12364;47.810;8.810;2023-02-28T07:23:42;2.80;84.30
24232;DHT22;12364;47.810;8.810;2023-02-28T07:26:10;2.70;84.10
24232;DHT22;12364;47.810;8.810;2023-02-28T07:28:39;2.70;84.20
24232;DHT22;12364;47.810;8.810;2023-02-28T07:31:07;2.80;84.20
24232;DHT22;12364;47.810;8.810;2023-02-28T07:33:34;2.80;84.20
24232;DHT22;12364;47.810;8.810;2023-02-28T07:36:05;2.80;84.50
24232;DHT22;12364;47.810;8.810;2023-02-28T07:38:35;2.80;84.00
24232;DHT22;12364;47.810;8.810;2023-02-28T07:41:03;2.80;84.10
24232;DHT22;12364;47.810;8.810;2023-02-28T07:43:32;2.80;83.80
24232;DHT22;12364;47.810;8.810;2023-02-28T07:46:10;2.90;83.90
24232;DHT22;12364;47.810;8.810;2023-02-28T07:48:37;2.80;83.50
24232;DHT22;12364;47.810;8.810;2023-02-28T07:51:04;2.80;83.70
24232;DHT22;12364;47.810;8.810;2023-02-28T07:53:31;2.70;83.60
24232;DHT22;12364;47.810;8.810;2023-02-28T07:55:59;2.70;83.80
24232;DHT22;12364;47.810;8.810;2023-02-28T07:58:28;2.70;83.90
24232;DHT22;12364;47.810;8.810;2023-02-28T08:00:55;2.80;83.90
24232;DHT22;12364;47.810;8.810;2023-02-28T08:03:23;2.80;83.90
24232;DHT22;12364;47.810;8.810;2023-02-28T08:05:50;2.70;83.80
24232;DHT22;12364;47.810;8.810;2023-02-28T08:08:17;2.70;84.20
24232;DHT22;12364;47.810;8.810;2023-02-28T08:10:44;2.60;84.00
24232;DHT22;12364;47.810;8.810;2023-02-28T08:13:11;2.60;84.20
24232;DHT22;12364;47.810;8.810;2023-02-28T08:15:40;2.70;84.40
24232;DHT22;12364;47.810;8.810;2023-02-28T08:18:07;2.70;84.10
24232;DHT22;12364;47.810;8.810;2023-02-28T08:20:36;2.70;84.30
24232;DHT22;12364;47.810;8.810;2023-02-28T08:23:03;2.90;84.30
24232;DHT22;12364;47.810;8.810;2023-02-28T08:25:29;2.80;84.00
24232;DHT22;12364;47.810;8.810;2023-02-28T08:27:56;2.80;84.10
24232;DHT22;12364;47.810;8.810;2023-02-28T08:30:23;2.80;84.60
24232;DHT22;12364;47.810;8.810;2023-02-28T08:32:50;2.80;84.10
24232;DHT22;12364;47.810;8.810;2023-02-28T08:35:18;2.80;84.40
24232;DHT22;12364;47.810;8.810;2023-02-28T08:37:47;2.80;84.60
24232;DHT22;12364;47.810;8.810;2023-02-28T08:40:13;2.90;84.60
24232;DHT22;12364;47.810;8.810;2023-02-28T08:42:45;2.90;84.10
24232;DHT22;12364;47.810;8.810;2023-02-28T08:45:12;2.90;84.70
24232;DHT22;12364;47.810;8.810;2023-02-28T08:47:40;2.80;84.30
24232;DHT22;12364;47.810;8.810;2023-02-28T08:50:07;2.80;84.40
24232;DHT22;12364;47.810;8.810;2023-02-28T08:52:34;2.80;84.60
24232;DHT22;12364;47.810;8.810;2023-02-28T08:55:01;2.90;84.80
24232;DHT22;12364;47.810;8.810;2023-02-28T08:57:28;3.00;84.80
24232;DHT22;12364;47.810;8.810;2023-02-28T08:59:55;2.90;84.30
24232;DHT22;12364;47.810;8.810;2023-02-28T09:02:22;2.90;84.30
24232;DHT22;12364;47.810;8.810;2023-02-28T09:04:49;2.90;84.40
24232;DHT22;12364;47.810;8.810;2023-02-28T09:07:16;2.90;84.50
24232;DHT22;12364;47.810;8.810;2023-02-28T09:09:43;2.80;84.40
24232;DHT22;12364;47.810;8.810;2023-02-28T09:12:24;2.80;84.80
24232;DHT22;12364;47.810;8.810;2023-02-28T09:14:51;2.70;84.60
24232;DHT22;12364;47.810;8.810;2023-02-28T09:17:19;2.70;84.80
24232;DHT22;12364;47.810;8.810;2023-02-28T09:19:49;2.70;84.70
24232;DHT22;12364;47.810;8.810;2023-02-28T09:22:16;2.80;86.10
24232;DHT22;12364;47.810;8.810;2023-02-28T09:24:43;2.90;85.40
24232;DHT22;12364;47.810;8.810;2023-02-28T09:27:11;3.00;85.10
24232;DHT22;12364;47.810;8.810;2023-02-28T09:29:38;3.00;84.50
24232;DHT22;12364;47.810;8.810;2023-02-28T09:32:05;3.00;84.60
24232;DHT22;12364;47.810;8.810;2023-02-28T09:34:34;3.00;84.50
24232;DHT22;12364;47.810;8.810;2023-02-28T09:37:03;3.00;84.60
24232;DHT22;12364;47.810;8.810;2023-02-28T09:39:30;3.10;84.70
24232;DHT22;12364;47.810;8.810;2023-02-28T09:41:58;3.20;84.30
24232;DHT22;12364;47.810;8.810;2023-02-28T09:44:27;3.20;84.20
24232;DHT22;12364;47.810;8.810;2023-02-28T09:49:42;3.20;84.60
24232;DHT22;12364;47.810;8.810;2023-02-28T09:52:12;3.30;84.20
24232;DHT22;12364;47.810;8.810;2023-02-28T09:54:40;3.30;84.30
24232;DHT22;12364;47.810;8.810;2023-02-28T09:57:09;3.40;83.90
24232;DHT22;12364;47.810;8.810;2023-02-28T10:05:06;3.40;84.20
24232;DHT22;12364;47.810;8.810;2023-02-28T10:08:00;3.40;84.20
24232;DHT22;12364;47.810;8.810;2023-02-28T10:10:29;3.40;83.90
24232;DHT22;12364;47.810;8.810;2023-02-28T10:13:00;3.40;84.30
24232;DHT22;12364;47.810;8.810;2023-02-28T10:15:29;3.40;84.20
24232;DHT22;12364;47.810;8.810;2023-02-28T10:18:02;3.50;84.40
24232;DHT22;12364;47.810;8.810;2023-02-28T10:20:37;3.60;84.20
24232;DHT22;12364;47.810;8.810;2023-02-28T10:23:09;3.60;83.90
24232;DHT22;12364;47.810;8.810;2023-02-28T10:25:38;3.70;83.90
24232;DHT22;12364;47.810;8.810;2023-02-28T10:28:12;3.70;83.90
24232;DHT22;12364;47.810;8.810;2023-02-28T10:30:40;3.70;84.10
24232;DHT22;12364;47.810;8.810;2023-02-28T10:33:51;3.80;83.90
24232;DHT22;12364;47.810;8.810;2023-02-28T10:35:59;3.80;84.30
24232;DHT22;12364;47.810;8.810;2023-02-28T10:38:27;3.90;83.90
24232;DHT22;12364;47.810;8.810;2023-02-28T10:41:07;3.90;83.80
24232;DHT22;12364;47.810;8.810;2023-02-28T10:43:35;3.90;83.80
24232;DHT22;12364;47.810;8.810;2023-02-28T10:48:39;3.90;83.60
24232;DHT22;12364;47.810;8.810;2023-02-28T10:51:08;3.90;83.50
24232;DHT22;12364;47.810;8.810;2023-02-28T10:53:56;4.00;83.80
24232;DHT22;12364;47.810;8.810;2023-02-28T10:56:28;4.00;83.60
24232;DHT22;12364;47.810;8.810;2023-02-28T11:01:41;4.10;83.70
24232;DHT22;12364;47.810;8.810;2023-02-28T11:06:59;4.10;83.70
24232;DHT22;12364;47.810;8.810;2023-02-28T11:09:28;4.20;83.70
24232;DHT22;12364;47.810;8.810;2023-02-28T11:11:56;4.20;83.60
24232;DHT22;12364;47.810;8.810;2023-02-28T11:14:27;4.20;83.50
24232;DHT22;12364;47.810;8.810;2023-02-28T11:16:55;4.20;83.50
24232;DHT22;12364;47.810;8.810;2023-02-28T11:19:26;4.10;83.60
24232;DHT22;12364;47.810;8.810;2023-02-28T11:21:55;4.10;83.60
24232;DHT22;12364;47.810;8.810;2023-02-28T11:26:53;3.90;83.30
24232;DHT22;12364;47.810;8.810;2023-02-28T11:32:05;4.00;83.80
24232;DHT22;12364;47.810;8.810;2023-02-28T11:34:33;4.00;83.90
24232;DHT22;12364;47.810;8.810;2023-02-28T11:37:00;4.20;84.30
24232;DHT22;12364;47.810;8.810;2023-02-28T11:39:32;4.10;84.10
24232;DHT22;12364;47.810;8.810;2023-02-28T11:44:54;4.30;83.70
24232;DHT22;12364;47.810;8.810;2023-02-28T11:50:31;4.10;83.60
24232;DHT22;12364;47.810;8.810;2023-02-28T11:53:01;4.20;84.20
24232;DHT22;12364;47.810;8.810;2023-02-28T11:55:42;4.20;83.80
24232;DHT22;12364;47.810;8.810;2023-02-28T12:05:51;4.30;83.50
24232;DHT22;12364;47.810;8.810;2023-02-28T12:20:54;4.00;84.00
24232;DHT22;12364;47.810;8.810;2023-02-28T12:28:42;3.80;84.30
24232;DHT22;12364;47.810;8.810;2023-02-28T12:31:11;3.80;84.60
24232;DHT22;12364;47.810;8.810;2023-02-28T12:33:43;3.90;84.80
24232;DHT22;12364;47.810;8.810;2023-02-28T12:36:13;4.00;84.50
24232;DHT22;12364;47.810;8.810;2023-02-28T12:38:43;4.00;84.40
24232;DHT22;12364;47.810;8.810;2023-02-28T12:43:52;4.20;84.30
24232;DHT22;12364;47.810;8.810;2023-02-28T12:46:29;4.20;84.10
24232;DHT22;12364;47.810;8.810;2023-02-28T12:48:57;4.30;84.20
24232;DHT22;12364;47.810;8.810;2023-02-28T12:51:25;4.20;84.10
24232;DHT22;12364;47.810;8.810;2023-02-28T12:56:30;4.10;84.30
24232;DHT22;12364;47.810;8.810;2023-02-28T12:59:02;4.10;84.60
24232;DHT22;12364;47.810;8.810;2023-02-28T13:01:45;4.00;84.20
24232;DHT22;12364;47.810;8.810;2023-02-28T13:09:29;4.10;84.40
24232;DHT22;12364;47.810;8.810;2023-02-28T13:11:56;4.10;84.40
24232;DHT22;12364;47.810;8.810;2023-02-28T13:19:45;4.20;84.70
24232;DHT22;12364;47.810;8.810;2023-02-28T13:24:46;4.20;84.10
24232;DHT22;12364;47.810;8.810;2023-02-28T13:29:41;3.90;84.70
24232;DHT22;12364;47.810;8.810;2023-02-28T13:34:39;4.00;84.90
24232;DHT22;12364;47.810;8.810;2023-02-28T13:37:42;4.10;84.60
24232;DHT22;12364;47.810;8.810;2023-02-28T13:42:34;4.10;84.40
24232;DHT22;12364;47.810;8.810;2023-02-28T13:47:41;4.10;84.70
24232;DHT22;12364;47.810;8.810;2023-02-28T13:50:14;4.10;84.80
24232;DHT22;12364;47.810;8.810;2023-02-28T13:52:45;4.00;84.30
24232;DHT22;12364;47.810;8.810;2023-02-28T13:55:26;4.00;84.70
24232;DHT22;12364;47.810;8.810;2023-02-28T14:00:50;4.10;84.50
24232;DHT22;12364;47.810;8.810;2023-02-28T14:06:08;4.00;84.40
24232;DHT22;12364;47.810;8.810;2023-02-28T14:08:36;4.00;84.30
24232;DHT22;12364;47.810;8.810;2023-02-28T14:11:05;3.90;84.60
24232;DHT22;12364;47.810;8.810;2023-02-28T14:16:16;3.90;84.50
24232;DHT22;12364;47.810;8.810;2023-02-28T14:18:49;4.00;84.70
24232;DHT22;12364;47.810;8.810;2023-02-28T14:21:24;4.00;84.60
24232;DHT22;12364;47.810;8.810;2023-02-28T14:24:03;4.00;84.50
24232;DHT22;12364;47.810;8.810;2023-02-28T14:34:25;4.00;85.10
24232;DHT22;12364;47.810;8.810;2023-02-28T14:36:57;4.00;85.40
24232;DHT22;12364;47.810;8.810;2023-02-28T14:39:25;4.10;85.70
24232;DHT22;12364;47.810;8.810;2023-02-28T14:41:52;4.10;84.60
24232;DHT22;12364;47.810;8.810;2023-02-28T14:44:20;4.20;84.30
24232;DHT22;12364;47.810;8.810;2023-02-28T14:47:11;4.10;84.40
24232;DHT22;12364;47.810;8.810;2023-02-28T14:49:41;4.10;84.30
24232;DHT22;12364;47.810;8.810;2023-02-28T14:54:37;4.20;84.50
24232;DHT22;12364;47.810;8.810;2023-02-28T14:57:04;4.20;84.50
24232;DHT22;12364;47.810;8.810;2023-02-28T14:59:33;4.20;84.40
24232;DHT22;12364;47.810;8.810;2023-02-28T15:04:43;4.40;84.10
24232;DHT22;12364;47.810;8.810;2023-02-28T15:07:10;4.50;84.10
24232;DHT22;12364;47.810;8.810;2023-02-28T15:09:37;4.60;84.10
24232;DHT22;12364;47.810;8.810;2023-02-28T15:12:04;4.60;84.00
24232;DHT22;12364;47.810;8.810;2023-02-28T15:14:31;4.70;84.20
24232;DHT22;12364;47.810;8.810;2023-02-28T15:17:00;4.70;84.10
24232;DHT22;12364;47.810;8.810;2023-02-28T15:22:02;4.90;83.70
24232;DHT22;12364;47.810;8.810;2023-02-28T15:24:35;4.80;83.90
24232;DHT22;12364;47.810;8.810;2023-02-28T15:27:05;4.80;83.90
24232;DHT22;12364;47.810;8.810;2023-02-28T15:29:36;4.70;83.80
24232;DHT22;12364;47.810;8.810;2023-02-28T15:32:16;4.60;84.00
24232;DHT22;12364;47.810;8.810;2023-02-28T15:34:46;4.60;84.60
24232;DHT22;12364;47.810;8.810;2023-02-28T15:40:10;4.70;83.90
24232;DHT22;12364;47.810;8.810;2023-02-28T15:42:38;4.70;84.00
24232;DHT22;12364;47.810;8.810;2023-02-28T15:45:05;4.80;84.20
24232;DHT22;12364;47.810;8.810;2023-02-28T15:47:32;4.90;84.00
24232;DHT22;12364;47.810;8.810;2023-02-28T15:50:04;4.90;84.10
24232;DHT22;12364;47.810;8.810;2023-02-28T15:52:37;5.00;83.80
24232;DHT22;12364;47.810;8.810;2023-02-28T15:55:09;5.00;83.90
24232;DHT22;12364;47.810;8.810;2023-02-28T15:57:39;5.00;83.50
24232;DHT22;12364;47.810;8.810;2023-02-28T16:00:09;5.00;83.70
24232;DHT22;12364;47.810;8.810;2023-02-28T16:02:38;5.00;83.90
24232;DHT22;12364;47.810;8.810;2023-02-28T16:07:32;5.00;83.90
24232;DHT22;12364;47.810;8.810;2023-02-28T16:10:00;5.00;83.90
24232;DHT22;12364;47.810;8.810;2023-02-28T16:12:28;5.00;83.80
24232;DHT22;12364;47.810;8.810;2023-02-28T16:14:56;5.10;83.80
24232;DHT22;12364;47.810;8.810;2023-02-28T16:17:25;5.10;83.70
24232;DHT22;12364;47.810;8.810;2023-02-28T16:19:52;5.10;83.70
24232;DHT22;12364;47.810;8.810;2023-02-28T16:22:19;5.20;84.00
24232;DHT22;12364;47.810;8.810;2023-02-28T16:24:46;5.20;83.90
24232;DHT22;12364;47.810;8.810;2023-02-28T16:27:15;5.30;83.90
24232;DHT22;12364;47.810;8.810;2023-02-28T16:29:43;5.30;83.80
24232;DHT22;12364;47.810;8.810;2023-02-28T16:32:12;5.30;83.80
24232;DHT22;12364;47.810;8.810;2023-02-28T16:34:41;5.40;84.00
24232;DHT22;12364;47.810;8.810;2023-02-28T16:37:12;5.50;83.80
24232;DHT22;12364;47.810;8.810;2023-02-28T16:39:39;5.40;83.60
24232;DHT22;12364;47.810;8.810;2023-02-28T16:42:09;5.50;83.80
24232;DHT22;12364;47.810;8.810;2023-02-28T16:44:37;5.50;83.90
24232;DHT22;12364;47.810;8.810;2023-02-28T16:47:04;5.50;83.80
24232;DHT22;12364;47.810;8.810;2023-02-28T16:49:31;5.50;83.80
24232;DHT22;12364;47.810;8.810;2023-02-28T16:51:58;5.50;83.80
24232;DHT22;12364;47.810;8.810;2023-02-28T16:54:25;5.60;83.70
24232;DHT22;12364;47.810;8.810;2023-02-28T16:56:53;5.60;83.80
24232;DHT22;12364;47.810;8.810;2023-02-28T16:59:22;5.60;83.70
24232;DHT22;12364;47.810;8.810;2023-02-28T17:01:51;5.50;83.60
24232;DHT22;12364;47.810;8.810;2023-02-28T17:04:18;5.60;83.80
24232;DHT22;12364;47.810;8.810;2023-02-28T17:06:45;5.50;83.50
24232;DHT22;12364;47.810;8.810;2023-02-28T17:09:16;5.50;83.40
24232;DHT22;12364;47.810;8.810;2023-02-28T17:11:44;5.40;83.60
24232;DHT22;12364;47.810;8.810;2023-02-28T17:14:12;5.40;83.50
24232;DHT22;12364;47.810;8.810;2023-02-28T17:16:39;5.30;83.60
24232;DHT22;12364;47.810;8.810;2023-02-28T17:19:09;5.30;83.80
24232;DHT22;12364;47.810;8.810;2023-02-28T17:21:37;5.20;83.70
24232;DHT22;12364;47.810;8.810;2023-02-28T17:24:04;5.20;84.10
24232;DHT22;12364;47.810;8.810;2023-02-28T17:26:31;5.20;83.90
24232;DHT22;12364;47.810;8.810;2023-02-28T17:28:59;5.10;84.30
24232;DHT22;12364;47.810;8.810;2023-02-28T17:31:26;5.20;84.40
24232;DHT22;12364;47.810;8.810;2023-02-28T17:33:54;5.10;84.30
24232;DHT22;12364;47.810;8.810;2023-02-28T17:36:25;5.10;84.20
24232;DHT22;12364;47.810;8.810;2023-02-28T17:38:53;5.10;84.30
24232;DHT22;12364;47.810;8.810;2023-02-28T17:41:21;5.10;84.20
24232;DHT22;12364;47.810;8.810;2023-02-28T17:43:49;5.10;84.40
24232;DHT22;12364;47.810;8.810;2023-02-28T17:46:21;5.10;84.20
24232;DHT22;12364;47.810;8.810;2023-02-28T17:48:48;5.10;84.20
24232;DHT22;12364;47.810;8.810;2023-02-28T17:51:16;5.10;84.00
24232;DHT22;12364;47.810;8.810;2023-02-28T17:53:43;5.10;84.20
24232;DHT22;12364;47.810;8.810;2023-02-28T17:56:14;5.00;84.10
24232;DHT22;12364;47.810;8.810;2023-02-28T17:58:42;5.00;84.20
24232;DHT22;12364;47.810;8.810;2023-02-28T18:01:09;4.90;84.20
24232;DHT22;12364;47.810;8.810;2023-02-28T18:03:36;4.90;84.40
24232;DHT22;12364;47.810;8.810;2023-02-28T18:06:03;4.80;84.20
24232;DHT22;12364;47.810;8.810;2023-02-28T18:08:30;4.70;84.50
24232;DHT22;12364;47.810;8.810;2023-02-28T18:11:00;4.70;84.70
24232;DHT22;12364;47.810;8.810;2023-02-28T18:13:27;4.60;84.70
24232;DHT22;12364;47.810;8.810;2023-02-28T18:15:54;4.60;84.60
24232;DHT22;12364;47.810;8.810;2023-02-28T18:18:21;4.60;84.70
24232;DHT22;12364;47.810;8.810;2023-02-28T18:20:48;4.60;84.40
24232;DHT22;12364;47.810;8.810;2023-02-28T18:23:16;4.60;84.70
24232;DHT22;12364;47.810;8.810;2023-02-28T18:25:44;4.60;84.60
24232;DHT22;12364;47.810;8.810;2023-02-28T18:28:11;4.60;84.80
24232;DHT22;12364;47.810;8.810;2023-02-28T18:30:38;4.60;84.70
24232;DHT22;12364;47.810;8.810;2023-02-28T18:33:05;4.50;84.80
24232;DHT22;12364;47.810;8.810;2023-02-28T18:35:32;4.60;85.00
24232;DHT22;12364;47.810;8.810;2023-02-28T18:40:32;4.50;85.00
24232;DHT22;12364;47.810;8.810;2023-02-28T18:42:59;4.50;85.00
24232;DHT22;12364;47.810;8.810;2023-02-28T18:45:26;4.50;84.90
24232;DHT22;12364;47.810;8.810;2023-02-28T18:47:53;4.50;84.90
24232;DHT22;12364;47.810;8.810;2023-02-28T18:50:20;4.40;84.90
24232;DHT22;12364;47.810;8.810;2023-02-28T18:52:47;4.40;84.80
24232;DHT22;12364;47.810;8.810;2023-02-28T18:55:14;4.40;85.00
24232;DHT22;12364;47.810;8.810;2023-02-28T18:57:45;4.50;85.30
24232;DHT22;12364;47.810;8.810;2023-02-28T19:00:13;4.50;85.00
24232;DHT22;12364;47.810;8.810;2023-02-28T19:02:40;4.40;84.80
24232;DHT22;12364;47.810;8.810;2023-02-28T19:05:08;4.40;85.10
24232;DHT22;12364;47.810;8.810;2023-02-28T19:07:37;4.40;85.10
24232;DHT22;12364;47.810;8.810;2023-02-28T19:10:05;4.40;85.20
24232;DHT22;12364;47.810;8.810;2023-02-28T19:12:32;4.40;85.00
24232;DHT22;12364;47.810;8.810;2023-02-28T19:15:00;4.30;85.10
24232;DHT22;12364;47.810;8.810;2023-02-28T19:17:27;4.30;85.00
24232;DHT22;12364;47.810;8.810;2023-02-28T19:19:54;4.30;85.20
24232;DHT22;12364;47.810;8.810;2023-02-28T19:22:21;4.30;85.30
24232;DHT22;12364;47.810;8.810;2023-02-28T19:24:48;4.30;85.10
24232;DHT22;12364;47.810;8.810;2023-02-28T19:27:17;4.30;85.10
24232;DHT22;12364;47.810;8.810;2023-02-28T19:29:48;4.30;85.00
24232;DHT22;12364;47.810;8.810;2023-02-28T19:32:16;4.20;84.70
24232;DHT22;12364;47.810;8.810;2023-02-28T19:34:44;4.20;85.00
24232;DHT22;12364;47.810;8.810;2023-02-28T19:37:12;4.20;84.50
24232;DHT22;12364;47.810;8.810;2023-02-28T19:39:42;4.20;84.80
24232;DHT22;12364;47.810;8.810;2023-02-28T19:42:13;4.20;84.70
24232;DHT22;12364;47.810;8.810;2023-02-28T19:44:41;4.10;84.60
24232;DHT22;12364;47.810;8.810;2023-02-28T19:47:08;4.10;84.70
24232;DHT22;12364;47.810;8.810;2023-02-28T19:49:35;4.10;84.80
24232;DHT22;12364;47.810;8.810;2023-02-28T19:52:02;4.10;84.70
24232;DHT22;12364;47.810;8.810;2023-02-28T19:54:29;4.10;84.50
24232;DHT22;12364;47.810;8.810;2023-02-28T19:56:56;4.10;84.70
24232;DHT22;12364;47.810;8.810;2023-02-28T19:59:24;4.10;84.40
24232;DHT22;12364;47.810;8.810;2023-02-28T20:02:04;4.10;84.50
24232;DHT22;12364;47.810;8.810;2023-02-28T20:04:31;4.10;84.70
24232;DHT22;12364;47.810;8.810;2023-02-28T20:06:58;4.00;84.40
24232;DHT22;12364;47.810;8.810;2023-02-28T20:09:28;3.90;84.20
24232;DHT22;12364;47.810;8.810;2023-02-28T20:11:55;3.90;84.90
24232;DHT22;12364;47.810;8.810;2023-02-28T20:14:25;3.90;84.50
24232;DHT22;12364;47.810;8.810;2023-02-28T20:16:52;3.90;84.70
24232;DHT22;12364;47.810;8.810;2023-02-28T20:19:19;3.90;84.60
24232;DHT22;12364;47.810;8.810;2023-02-28T20:21:46;3.90;84.80
24232;DHT22;12364;47.810;8.810;2023-02-28T20:24:13;3.90;84.60
24232;DHT22;12364;47.810;8.810;2023-02-28T20:26:40;3.80;84.50
24232;DHT22;12364;47.810;8.810;2023-02-28T20:29:07;3.70;84.70
24232;DHT22;12364;47.810;8.810;2023-02-28T20:31:34;3.70;84.70
24232;DHT22;12364;47.810;8.810;2023-02-28T20:34:04;3.60;85.00
24232;DHT22;12364;47.810;8.810;2023-02-28T20:36:31;3.70;85.20
24232;DHT22;12364;47.810;8.810;2023-02-28T20:38:58;3.70;85.10
24232;DHT22;12364;47.810;8.810;2023-02-28T20:41:26;3.60;84.90
24232;DHT22;12364;47.810;8.810;2023-02-28T20:43:54;3.60;85.00
24232;DHT22;12364;47.810;8.810;2023-02-28T20:46:21;3.70;85.50
24232;DHT22;12364;47.810;8.810;2023-02-28T20:48:48;3.70;85.40
24232;DHT22;12364;47.810;8.810;2023-02-28T20:51:15;3.60;84.80
24232;DHT22;12364;47.810;8.810;2023-02-28T20:53:42;3.60;84.80
24232;DHT22;12364;47.810;8.810;2023-02-28T20:56:10;3.60;84.90
24232;DHT22;12364;47.810;8.810;2023-02-28T20:58:39;3.60;84.70
24232;DHT22;12364;47.810;8.810;2023-02-28T21:06:09;3.50;84.80
24232;DHT22;12364;47.810;8.810;2023-02-28T21:08:37;3.50;84.70
24232;DHT22;12364;47.810;8.810;2023-02-28T21:11:08;3.50;84.70
24232;DHT22;12364;47.810;8.810;2023-02-28T21:13:36;3.50;84.30
24232;DHT22;12364;47.810;8.810;2023-02-28T21:16:03;3.50;85.00
24232;DHT22;12364;47.810;8.810;2023-02-28T21:18:32;3.50;84.40
24232;DHT22;12364;47.810;8.810;2023-02-28T21:21:03;3.60;84.50
24232;DHT22;12364;47.810;8.810;2023-02-28T21:23:30;3.50;84.50
24232;DHT22;12364;47.810;8.810;2023-02-28T21:26:07;3.50;84.40
24232;DHT22;12364;47.810;8.810;2023-02-28T21:28:35;3.50;84.20
24232;DHT22;12364;47.810;8.810;2023-02-28T21:31:03;3.50;84.40
24232;DHT22;12364;47.810;8.810;2023-02-28T21:33:31;3.50;84.50
24232;DHT22;12364;47.810;8.810;2023-02-28T21:36:05;3.50;84.10
24232;DHT22;12364;47.810;8.810;2023-02-28T21:38:32;3.50;84.20
24232;DHT22;12364;47.810;8.810;2023-02-28T21:41:07;3.50;84.50
24232;DHT22;12364;47.810;8.810;2023-02-28T21:43:34;3.50;84.60
24232;DHT22;12364;47.810;8.810;2023-02-28T21:46:01;3.50;83.90
24232;DHT22;12364;47.810;8.810;2023-02-28T21:48:29;3.50;83.70
24232;DHT22;12364;47.810;8.810;2023-02-28T21:50:56;3.50;84.00
24232;DHT22;12364;47.810;8.810;2023-02-28T21:53:24;3.40;84.10
24232;DHT22;12364;47.810;8.810;2023-02-28T21:55:51;3.40;84.90
24232;DHT22;12364;47.810;8.810;2023-02-28T21:58:18;3.40;84.70
24232;DHT22;12364;47.810;8.810;2023-02-28T22:00:45;3.30;85.10
24232;DHT22;12364;47.810;8.810;2023-02-28T22:03:12;3.40;85.50
24232;DHT22;12364;47.810;8.810;2023-02-28T22:05:39;3.30;85.50
24232;DHT22;12364;47.810;8.810;2023-02-28T22:08:06;3.40;85.40
24232;DHT22;12364;47.810;8.810;2023-02-28T22:10:34;3.40;85.40
24232;DHT22;12364;47.810;8.810;2023-02-28T22:13:01;3.40;85.70
24232;DHT22;12364;47.810;8.810;2023-02-28T22:15:29;3.40;85.50
24232;DHT22;12364;47.810;8.810;2023-02-28T22:17:57;3.40;85.50
24232;DHT22;12364;47.810;8.810;2023-02-28T22:20:24;3.40;85.50
24232;DHT22;12364;47.810;8.810;2023-02-28T22:22:51;3.40;86.20
24232;DHT22;12364;47.810;8.810;2023-02-28T22:25:18;3.40;86.40
24232;DHT22;12364;47.810;8.810;2023-02-28T22:27:45;3.50;86.00
24232;DHT22;12364;47.810;8.810;2023-02-28T22:30:12;3.50;86.30
24232;DHT22;12364;47.810;8.810;2023-02-28T22:32:39;3.50;86.50
24232;DHT22;12364;47.810;8.810;2023-02-28T22:35:07;3.50;86.20
24232;DHT22;12364;47.810;8.810;2023-02-28T22:37:34;3.50;86.00
24232;DHT22;12364;47.810;8.810;2023-02-28T22:40:01;3.60;86.30